Time;durP1;ratioP1;P1;durP2;ratioP2;P2;SDS_P1;SDS_P2;PMS_P1;PMS_P2;Temp;Humidity;BMP_temperature;BMP_pressure;BME280_temperature;BME280_humidity;BME280_pressure;Samples;Min_cycle;Max_cycle;Signal;HPM_P1;HPM_P2
2022/06/14 00:00:55;;;;;;;41.35;7.90;;;;;;;31.65;65.89;97445.16;4856047;29;20056;-67
2022/06/14 00:03:52;;;;;;;43.25;8.82;;;;;;;31.62;68.27;97442.91;4854932;29;20121;-68
2022/06/14 00:06:31;;;;;;;47.83;9.23;;;;;;;31.56;66.63;97445.34;4854896;29;20050;-67
2022/06/14 00:09:19;;;;;;;40.78;8.35;;;;;;;31.49;66.71;97449.88;4854038;29;20057;-66
2022/06/14 00:12:08;;;;;;;46.22;8.50;;;;;;;31.47;66.27;97464.44;4853935;29;20105;-68
2022/06/14 00:14:51;;;;;;;49.15;8.00;;;;;;;31.43;66.50;97460.56;4854952;29;20063;-67
2022/06/14 00:17:40;;;;;;;52.08;7.75;;;;;;;31.38;67.17;97461.16;4853142;29;20053;-68
2022/06/14 00:20:23;;;;;;;52.78;8.88;;;;;;;31.35;67.62;97474.91;4853944;29;20148;-67
2022/06/14 00:23:12;;;;;;;47.33;9.02;;;;;;;31.32;66.99;97472.66;4853667;29;20113;-68
2022/06/14 00:25:57;;;;;;;49.22;7.88;;;;;;;31.31;67.68;97468.34;4854463;29;20152;-67
2022/06/14 00:28:47;;;;;;;44.17;8.27;;;;;;;31.29;67.40;97473.06;4854098;29;20077;-68
2022/06/14 00:31:36;;;;;;;53.95;9.73;;;;;;;31.30;67.30;97482.69;4853009;29;20093;-68
2022/06/14 00:34:31;;;;;;;50.50;8.48;;;;;;;31.27;67.70;97479.63;4855954;29;20108;-68
2022/06/14 00:37:24;;;;;;;56.42;9.75;;;;;;;31.25;67.99;97484.31;4844335;29;20411;-68
2022/06/14 00:40:17;;;;;;;45.85;8.45;;;;;;;31.27;69.76;97485.78;4854252;29;20049;-67
2022/06/14 00:43:03;;;;;;;45.17;8.90;;;;;;;31.22;68.34;97480.22;4854683;29;20148;-68
2022/06/14 00:45:52;;;;;;;57.60;10.43;;;;;;;31.21;67.59;97478.59;4854251;29;20085;-68
2022/06/14 00:48:34;;;;;;;66.53;11.15;;;;;;;31.21;68.41;97489.22;4853736;29;20045;-69
2022/06/14 00:51:36;;;;;;;48.50;8.98;;;;;;;31.25;68.11;97493.13;4852964;29;20478;-68
2022/06/14 00:54:24;;;;;;;61.15;10.52;;;;;;;31.22;67.65;97487.41;4853721;29;20572;-68
2022/06/14 00:57:18;;;;;;;73.15;10.57;;;;;;;31.23;67.73;97487.19;4853698;29;20713;-69
2022/06/14 01:00:04;;;;;;;55.88;8.43;;;;;;;31.18;67.53;97484.34;4853103;29;20050;-69
2022/06/14 01:02:58;;;;;;;83.88;10.10;;;;;;;31.20;67.82;97484.97;4851505;29;20053;-68
2022/06/14 01:06:05;;;;;;;76.55;11.68;;;;;;;31.17;67.39;97488.84;4852445;29;20121;-68
2022/06/14 01:09:11;;;;;;;82.53;10.65;;;;;;;31.21;66.78;97493.78;4853581;29;20544;-69
2022/06/14 01:12:01;;;;;;;75.15;10.77;;;;;;;31.19;67.37;97493.97;4853808;29;20057;-68
2022/06/14 01:15:14;;;;;;;69.63;9.73;;;;;;;31.25;67.67;97493.13;4853019;29;20496;-68
2022/06/14 01:18:09;;;;;;;78.30;9.88;;;;;;;31.26;67.87;97496.63;4855719;29;20057;-68
2022/06/14 01:20:57;;;;;;;96.03;12.63;;;;;;;31.27;67.51;97507.06;4865617;29;20073;-68
2022/06/14 01:23:55;;;;;;;109.07;12.82;;;;;;;31.24;66.93;97510.13;4844550;29;20204;-68
2022/06/14 01:26:34;;;;;;;103.18;11.30;;;;;;;31.34;67.47;97510.53;4850938;29;20073;-68
2022/06/14 01:29:33;;;;;;;83.75;12.55;;;;;;;31.34;68.56;97515.88;4852468;29;20061;-68
2022/06/14 01:32:12;;;;;;;105.40;13.15;;;;;;;31.41;67.44;97515.84;4851974;29;20052;-69
2022/06/14 01:35:11;;;;;;;87.00;11.82;;;;;;;31.41;67.02;97519.34;4852458;29;20120;-68
2022/06/14 01:38:04;;;;;;;90.60;11.98;;;;;;;31.48;66.79;97520.16;4852130;29;20053;-68
2022/06/14 01:41:20;;;;;;;87.70;11.32;;;;;;;31.59;66.37;97517.88;4851715;29;20545;-68
2022/06/14 01:44:19;;;;;;;94.53;10.95;;;;;;;31.65;66.11;97527.72;4850247;29;20050;-68
2022/06/14 01:47:27;;;;;;;123.75;12.98;;;;;;;31.72;67.36;97517.88;4849852;29;20141;-69
2022/06/14 01:54:04;;;;;;;113.78;12.90;;;;;;;31.95;67.27;97507.56;4849927;29;20820;-69
2022/06/14 01:57:12;;;;;;;149.55;15.43;;;;;;;32.23;66.66;97516.13;4851800;29;20053;-69
2022/06/14 02:00:11;;;;;;;117.65;13.45;;;;;;;32.48;65.59;97518.88;4853082;29;20053;-67
2022/06/14 02:06:30;;;;;;;134.85;14.70;;;;;;;32.52;63.04;97529.91;4851981;29;20124;-67
2022/06/14 02:09:52;;;;;;;168.18;15.65;;;;;;;32.70;62.63;97532.72;4840481;29;20053;-68
2022/06/14 02:12:40;;;;;;;146.52;15.50;;;;;;;32.97;63.12;97536.03;4854696;29;20052;-68
2022/06/14 02:15:47;;;;;;;171.35;20.55;;;;;;;33.00;62.20;97549.75;4852395;29;20063;-68
2022/06/14 02:18:33;;;;;;;173.02;18.83;;;;;;;33.14;61.69;97555.00;4839226;29;20084;-68
2022/06/14 02:21:48;;;;;;;132.60;18.75;;;;;;;33.27;61.60;97554.94;4852412;29;20061;-68
2022/06/14 02:24:29;;;;;;;152.05;17.20;;;;;;;33.43;61.44;97559.75;4852025;29;20059;-68
2022/06/14 02:27:58;;;;;;;158.68;16.10;;;;;;;33.61;59.96;97553.59;4851206;29;20049;-68
2022/06/14 02:30:45;;;;;;;176.85;18.85;;;;;;;33.67;59.69;97555.41;4834564;29;20049;-68
2022/06/14 02:33:56;;;;;;;137.85;16.05;;;;;;;33.80;58.99;97555.31;4851857;29;20454;-68
2022/06/14 02:37:15;;;;;;;156.30;18.10;;;;;;;34.14;58.28;97559.28;4850019;29;20371;-69
2022/06/14 02:40:17;;;;;;;194.40;19.85;;;;;;;34.23;58.04;97552.63;4852745;29;20053;-67
2022/06/14 02:43:23;;;;;;;156.23;19.80;;;;;;;34.18;57.74;97563.13;4852471;29;20145;-68
2022/06/14 02:46:25;;;;;;;171.20;19.33;;;;;;;34.00;56.67;97560.47;4851859;29;20053;-71
2022/06/14 02:49:19;;;;;;;183.93;18.45;;;;;;;34.06;58.22;97559.56;4852633;29;20072;-68
2022/06/14 02:52:43;;;;;;;202.32;21.63;;;;;;;34.19;57.09;97557.56;4853033;29;20057;-68
2022/06/14 02:56:00;;;;;;;179.85;18.55;;;;;;;34.33;56.08;97546.72;4828686;29;20121;-68
2022/06/14 02:58:57;;;;;;;172.25;17.88;;;;;;;34.43;58.28;97552.34;4861060;29;20046;-68
2022/06/14 03:02:16;;;;;;;175.05;17.98;;;;;;;34.75;55.45;97563.69;4858895;29;20053;-68
2022/06/14 03:05:21;;;;;;;182.88;20.20;;;;;;;34.80;53.97;97550.47;4857866;29;20049;-69
2022/06/14 03:08:22;;;;;;;184.20;21.25;;;;;;;34.66;54.61;97559.66;4858010;29;20533;-69
2022/06/14 03:11:21;;;;;;;201.75;22.33;;;;;;;34.77;54.00;97565.13;4870516;29;20239;-69
2022/06/14 03:14:53;;;;;;;164.40;22.25;;;;;;;34.89;55.15;97555.25;4844497;29;20478;-68
2022/06/14 03:18:25;;;;;;;161.43;18.02;;;;;;;35.16;54.33;97544.97;4833868;29;20066;-69
2022/06/14 03:21:24;;;;;;;170.77;17.38;;;;;;;35.57;53.99;97552.13;4840471;29;20064;-70
2022/06/14 03:24:34;;;;;;;160.23;19.77;;;;;;;35.70;54.13;97545.72;4857510;29;20053;-69
2022/06/14 03:27:42;;;;;;;185.13;21.05;;;;;;;35.56;52.67;97549.69;4857385;29;20097;-69
2022/06/14 03:30:31;;;;;;;188.55;18.50;;;;;;;35.66;53.53;97540.03;4857546;29;20109;-69
2022/06/14 03:33:56;;;;;;;161.93;20.00;;;;;;;35.41;52.32;97547.47;4841972;29;20049;-69
2022/06/14 03:36:51;;;;;;;180.38;21.40;;;;;;;35.63;52.43;97539.66;4857754;29;20049;-68
2022/06/14 03:39:33;;;;;;;173.27;20.42;;;;;;;35.73;52.33;97542.59;4857780;29;20110;-68
2022/06/14 03:42:29;;;;;;;184.02;20.73;;;;;;;35.80;51.38;97545.97;4857426;29;20053;-68
2022/06/14 03:45:08;;;;;;;173.55;20.08;;;;;;;35.90;52.97;97546.22;4857500;29;20050;-68
2022/06/14 03:47:57;;;;;;;194.32;21.33;;;;;;;35.97;51.88;97548.75;4847060;29;20045;-69
2022/06/14 03:51:18;;;;;;;179.88;19.30;;;;;;;35.71;52.94;97542.03;4858190;29;20690;-69
2022/06/14 03:54:24;;;;;;;165.45;20.30;;;;;;;36.13;52.48;97547.22;4849317;29;20061;-69
2022/06/14 03:57:36;;;;;;;175.88;19.20;;;;;;;36.21;52.44;97541.50;4857927;29;20477;-68
2022/06/14 04:00:25;;;;;;;167.70;17.83;;;;;;;36.70;50.93;97540.91;4856465;29;20765;-68
2022/06/14 04:03:32;;;;;;;219.82;20.38;;;;;;;36.48;50.53;97542.56;4857257;29;20105;-68
2022/06/14 04:06:32;;;;;;;188.65;18.88;;;;;;;36.63;51.54;97539.41;4856240;29;20477;-68
2022/06/14 04:09:30;;;;;;;182.63;16.77;;;;;;;36.84;51.13;97545.97;4857776;29;20053;-68
2022/06/14 04:12:51;;;;;;;178.77;17.77;;;;;;;36.89;49.23;97548.72;4853376;29;20054;-69
2022/06/14 04:15:37;;;;;;;177.75;18.05;;;;;;;36.32;49.41;97556.78;4851420;29;20064;-67
2022/06/14 04:19:10;;;;;;;183.75;22.35;;;;;;;37.10;50.02;97548.06;4854738;29;20053;-68
2022/06/14 04:22:47;;;;;;;152.93;15.50;;;;;;;37.12;49.62;97554.78;4854670;29;20070;-67
2022/06/14 04:25:44;;;;;;;160.23;19.52;;;;;;;36.90;49.41;97558.44;4836216;29;20061;-68
2022/06/14 04:29:07;;;;;;;190.48;19.73;;;;;;;37.62;49.82;97561.28;4854863;29;20129;-69
2022/06/14 04:32:27;;;;;;;205.45;19.50;;;;;;;37.38;50.65;97558.75;4854784;29;20049;-67
2022/06/14 04:35:22;;;;;;;179.43;18.15;;;;;;;37.27;47.38;97558.84;4853400;29;20083;-68
2022/06/14 04:38:13;;;;;;;177.20;20.73;;;;;;;37.26;46.96;97555.34;4853845;29;20466;-69
2022/06/14 04:41:35;;;;;;;182.55;18.70;;;;;;;37.57;48.94;97543.19;4854202;29;20056;-68
2022/06/14 04:45:01;;;;;;;195.75;18.83;;;;;;;37.67;50.43;97547.94;4853309;29;20046;-68
2022/06/14 04:48:02;;;;;;;147.30;18.33;;;;;;;37.84;48.53;97540.63;4853421;29;20683;-68
2022/06/14 04:50:50;;;;;;;157.77;18.50;;;;;;;37.81;49.31;97546.53;4853749;29;20073;-68
2022/06/14 04:54:06;;;;;;;144.77;17.52;;;;;;;37.95;49.14;97553.16;4852910;29;20053;-67
2022/06/14 04:57:13;;;;;;;142.43;16.02;;;;;;;37.78;47.17;97544.31;4853863;29;20810;-68
2022/06/14 05:00:16;;;;;;;146.02;16.95;;;;;;;37.68;47.48;97546.84;4854023;29;20042;-67
2022/06/14 05:03:13;;;;;;;163.88;17.77;;;;;;;37.91;51.24;97543.97;4838648;29;20109;-68
2022/06/14 05:06:09;;;;;;;165.27;17.92;;;;;;;37.90;48.89;97545.03;4853443;29;20057;-67
2022/06/14 05:09:25;;;;;;;139.77;17.08;;;;;;;37.66;49.15;97532.84;4854682;29;20140;-69
2022/06/14 05:12:52;;;;;;;172.25;19.70;;;;;;;37.66;47.49;97543.63;4845204;29;20049;-68
2022/06/14 05:16:05;;;;;;;133.73;15.98;;;;;;;37.88;48.08;97537.22;4852886;29;20073;-67
2022/06/14 05:19:09;;;;;;;149.43;16.67;;;;;;;37.92;48.65;97540.19;4854209;29;20064;-68
2022/06/14 05:22:14;;;;;;;203.90;19.20;;;;;;;37.81;46.16;97531.19;4836021;29;20315;-67
2022/06/14 05:25:05;;;;;;;154.40;18.50;;;;;;;38.05;48.78;97531.81;4852920;29;20041;-67
2022/06/14 05:28:00;;;;;;;142.45;16.60;;;;;;;38.04;46.90;97532.84;4853069;29;20814;-68
2022/06/14 05:30:59;;;;;;;167.80;18.85;;;;;;;37.88;45.94;97531.81;4853483;29;20053;-67
2022/06/14 05:33:51;;;;;;;149.95;19.05;;;;;;;38.10;47.34;97529.16;4853442;29;20050;-67
2022/06/14 05:36:50;;;;;;;149.18;17.92;;;;;;;38.11;48.30;97525.41;4853150;29;20133;-68
2022/06/14 05:39:47;;;;;;;156.73;19.38;;;;;;;38.19;46.88;97521.47;4834032;29;20122;-68
2022/06/14 05:42:39;;;;;;;;;;;;;;;38.24;46.09;97527.72;4820568;29;20142;-67
2022/06/14 05:45:31;;;;;;;139.38;16.02;;;;;;;38.34;47.42;97531.59;4816286;29;19941;-68
2022/06/14 05:48:16;;;;;;;164.85;17.13;;;;;;;38.35;44.82;97527.84;4830964;29;20061;-67
2022/06/14 05:51:08;;;;;;;140.95;13.85;;;;;;;38.38;43.76;97521.97;4852672;29;20140;-68
2022/06/14 05:54:00;;;;;;;165.27;16.70;;;;;;;38.27;45.21;97521.84;4851915;29;20105;-68
2022/06/14 05:57:13;;;;;;;156.70;16.60;;;;;;;38.50;46.58;97523.47;4852506;29;20053;-68
2022/06/14 05:59:59;;;;;;;137.85;18.88;;;;;;;38.52;44.78;97517.84;4851823;29;20061;-68
2022/06/14 06:03:06;;;;;;;153.88;18.10;;;;;;;38.53;46.17;97519.47;4851497;29;20065;-68
2022/06/14 06:06:27;;;;;;;131.90;17.05;;;;;;;38.65;49.18;97520.94;4852014;29;20122;-67
2022/06/14 06:09:46;;;;;;;130.98;14.95;;;;;;;38.71;46.95;97519.13;4851143;29;20063;-68
2022/06/14 06:12:28;;;;;;;140.52;16.90;;;;;;;38.79;47.03;97515.97;4852637;29;20053;-68
2022/06/14 06:15:28;;;;;;;165.75;20.35;;;;;;;38.67;44.44;97518.00;4851938;29;20754;-68
2022/06/14 06:18:31;;;;;;;174.05;20.00;;;;;;;38.59;45.63;97513.06;4844905;29;20488;-68
2022/06/14 06:21:31;;;;;;;136.82;17.02;;;;;;;38.61;44.80;97509.06;4833958;29;20137;-68
2022/06/14 06:24:31;;;;;;;146.10;18.13;;;;;;;38.64;46.68;97513.94;4832584;29;20058;-69
2022/06/14 06:27:14;;;;;;;157.20;15.57;;;;;;;38.73;42.44;97518.84;4834077;29;20064;-67
2022/06/14 06:30:30;;;;;;;163.43;18.08;;;;;;;38.72;47.14;97509.97;4834114;29;20554;-68
2022/06/14 06:33:15;;;;;;;106.28;12.75;;;;;;;38.86;48.28;97505.00;4833297;29;20057;-68
2022/06/14 06:36:22;;;;;;;143.52;17.35;;;;;;;39.03;43.63;97501.09;4833507;29;20144;-66
2022/06/14 06:39:24;;;;;;;140.18;14.68;;;;;;;39.14;43.29;97495.81;4834372;29;20064;-72
2022/06/14 06:42:32;;;;;;;140.27;16.75;;;;;;;38.99;43.65;97493.81;4833250;29;20144;-65
2022/06/14 06:45:28;;;;;;;106.75;13.85;;;;;;;39.20;44.58;97489.38;4832645;29;20049;-73
2022/06/14 06:48:31;;;;;;;132.52;17.13;;;;;;;39.28;44.86;97478.13;4834161;29;20125;-76
2022/06/14 06:51:18;;;;;;;145.10;17.92;;;;;;;39.13;41.75;97473.44;4833724;29;20054;-70
2022/06/14 06:54:38;;;;;;;104.38;12.40;;;;;;;39.35;42.50;97484.13;4846207;29;20077;-77
2022/06/14 06:57:30;;;;;;;134.70;15.65;;;;;;;39.16;39.90;97480.19;4817449;29;21768;-69
2022/06/14 07:00:21;;;;;;;118.57;13.90;;;;;;;39.18;45.65;97476.19;4818550;29;20110;-69
2022/06/14 07:03:26;;;;;;;124.50;13.93;;;;;;;38.98;43.91;97474.13;4815999;29;20505;-69
2022/06/14 07:06:44;;;;;;;114.50;14.38;;;;;;;38.93;43.56;97468.69;4815243;29;20219;-69
2022/06/14 07:09:48;;;;;;;98.28;11.75;;;;;;;38.78;44.52;97467.75;4815469;29;20050;-69
2022/06/14 07:13:14;;;;;;;110.60;12.48;;;;;;;38.62;44.80;97470.31;4815935;29;20046;-67
2022/06/14 07:16:27;;;;;;;117.70;13.77;;;;;;;38.60;46.01;97464.34;4834089;29;20137;-67
2022/06/14 07:19:41;;;;;;;73.53;11.23;;;;;;;38.47;45.35;97447.78;4832760;29;20057;-67
2022/06/14 07:22:35;;;;;;;119.32;12.77;;;;;;;38.59;46.63;97445.75;4833153;29;20060;-68
2022/06/14 07:25:33;;;;;;;120.80;18.50;;;;;;;38.59;48.20;97451.13;4819254;29;20167;-68
2022/06/14 07:28:34;;;;;;;115.85;14.60;;;;;;;38.45;46.49;97445.31;4833928;29;20050;-69
2022/06/14 07:31:27;;;;;;;123.57;16.70;;;;;;;38.70;42.92;97444.78;4833927;29;20482;-69
2022/06/14 07:34:17;;;;;;;95.65;13.65;;;;;;;38.57;46.49;97445.19;4834260;29;20126;-70
2022/06/14 07:37:22;;;;;;;140.35;15.40;;;;;;;38.49;44.43;97445.63;4835245;29;20058;-69
2022/06/14 07:40:20;;;;;;;112.05;14.25;;;;;;;38.64;43.10;97437.69;4851659;29;20081;-69
2022/06/14 07:43:23;;;;;;;109.38;15.15;;;;;;;38.61;47.23;97432.84;4859490;29;20053;-69
2022/06/14 07:46:18;;;;;;;93.65;12.32;;;;;;;38.54;45.19;97416.91;4855123;29;20058;-69
2022/06/14 07:49:09;;;;;;;89.47;12.38;;;;;;;38.45;46.25;97423.78;4856526;29;20080;-69
2022/06/14 07:52:24;;;;;;;82.53;11.88;;;;;;;38.56;45.21;97419.31;4856271;29;20049;-69
2022/06/14 07:55:19;;;;;;;87.70;11.40;;;;;;;38.60;41.71;97415.06;4854880;29;20158;-69
2022/06/14 07:58:11;;;;;;;101.82;12.50;;;;;;;38.54;46.52;97410.72;4868732;29;20064;-68
2022/06/14 08:01:09;;;;;;;61.28;10.75;;;;;;;38.45;47.27;97406.81;4855644;29;20351;-69
2022/06/14 08:04:30;;;;;;;94.40;12.60;;;;;;;38.47;45.43;97404.69;4855529;29;20058;-69
2022/06/14 08:07:22;;;;;;;95.60;12.07;;;;;;;38.43;43.88;97398.19;4827023;29;20050;-68
2022/06/14 08:10:04;;;;;;;79.30;10.20;;;;;;;38.39;43.22;97394.38;4854932;29;20068;-68
2022/06/14 08:12:56;;;;;;;92.60;10.30;;;;;;;38.19;47.67;97397.69;4848497;29;20060;-68
2022/06/14 08:15:42;;;;;;;95.85;11.85;;;;;;;38.16;48.75;97388.22;4820144;29;20046;-68
2022/06/14 08:18:31;;;;;;;79.18;10.13;;;;;;;38.55;40.26;97397.00;4851714;29;20053;-68
2022/06/14 08:21:33;;;;;;;92.20;10.67;;;;;;;38.62;42.65;97391.38;4849035;29;20053;-67
2022/06/14 08:24:29;;;;;;;96.05;12.68;;;;;;;38.88;40.25;97389.69;4842091;29;20477;-69
2022/06/14 08:27:28;;;;;;;88.20;13.60;;;;;;;39.07;40.31;97382.84;4840371;29;20101;-69
2022/06/14 08:30:45;;;;;;;106.90;14.85;;;;;;;39.22;39.56;97382.13;4851557;29;20727;-69
2022/06/14 08:33:45;;;;;;;80.82;10.15;;;;;;;39.40;38.63;97381.72;4854957;29;20073;-69
2022/06/14 08:36:36;;;;;;;85.68;11.30;;;;;;;39.39;36.61;97372.00;4854457;29;20049;-69
2022/06/14 08:39:43;;;;;;;92.68;11.55;;;;;;;39.43;39.82;97365.03;4853784;29;20064;-69
2022/06/14 08:42:37;;;;;;;75.50;11.40;;;;;;;39.50;37.85;97359.38;4853924;29;20061;-69
2022/06/14 08:45:46;;;;;;;70.10;9.98;;;;;;;39.55;39.36;97362.91;4854417;29;20053;-68
2022/06/14 08:49:00;;;;;;;79.95;11.75;;;;;;;39.55;40.15;97362.09;4837814;29;20057;-69
2022/06/14 08:52:12;;;;;;;88.25;11.23;;;;;;;39.60;37.67;97354.81;4853008;29;20061;-69
2022/06/14 08:55:35;;;;;;;81.85;10.63;;;;;;;39.66;37.90;97352.97;4853194;29;20057;-69
2022/06/14 08:58:44;;;;;;;93.93;11.75;;;;;;;39.70;37.58;97351.34;4852255;29;20113;-69
2022/06/14 09:01:51;;;;;;;96.47;11.05;;;;;;;39.67;38.39;97351.91;4854151;29;20061;-69
2022/06/14 09:05:02;;;;;;;60.63;8.57;;;;;;;39.53;36.01;97342.66;4854136;29;20055;-68
2022/06/14 09:08:05;;;;;;;61.45;8.20;;;;;;;39.52;36.78;97333.75;4854139;29;20045;-68
2022/06/14 09:10:58;;;;;;;68.97;11.15;;;;;;;39.54;36.85;97328.91;4854164;29;20141;-67
2022/06/14 09:14:07;;;;;;;52.92;8.43;;;;;;;39.48;36.82;97324.59;4853844;29;20053;-67
2022/06/14 09:17:37;;;;;;;68.72;9.40;;;;;;;39.44;39.71;97328.88;4854388;29;20105;-68
2022/06/14 09:21:06;;;;;;;60.15;10.73;;;;;;;39.43;37.46;97316.50;4853499;29;20049;-69
2022/06/14 09:24:11;;;;;;;73.95;8.95;;;;;;;39.56;37.19;97318.69;4850565;29;20049;-73
2022/06/14 09:27:32;;;;;;;62.88;8.73;;;;;;;39.58;35.75;97319.22;4853449;29;20065;-69
2022/06/14 09:30:36;;;;;;;52.88;7.75;;;;;;;39.54;35.73;97317.31;4844802;29;20050;-68
2022/06/14 09:33:27;;;;;;;70.38;8.63;;;;;;;39.55;38.31;97306.28;4843531;29;20092;-69
2022/06/14 09:36:41;;;;;;;77.90;9.20;;;;;;;39.58;36.09;97311.16;4853454;29;20129;-68
2022/06/14 09:40:05;;;;;;;75.97;9.13;;;;;;;39.64;35.50;97301.97;4834419;29;20050;-68
2022/06/14 09:42:47;;;;;;;68.05;8.18;;;;;;;39.65;36.28;97298.22;4846143;29;20093;-68
2022/06/14 09:45:47;;;;;;;59.63;7.38;;;;;;;39.69;36.32;97293.91;4853275;29;20073;-66
2022/06/14 09:48:56;;;;;;;64.32;8.38;;;;;;;39.77;37.47;97298.75;4853361;29;20049;-65
2022/06/14 09:52:04;;;;;;;58.85;9.18;;;;;;;39.83;34.25;97294.25;4836243;29;20068;-68
2022/06/14 09:55:29;;;;;;;60.17;8.60;;;;;;;39.83;35.09;97294.25;4853542;29;20117;-68
2022/06/14 09:59:01;;;;;;;48.58;8.82;;;;;;;39.86;35.54;97292.88;4852968;29;20384;-68
2022/06/14 10:02:15;;;;;;;51.00;7.22;;;;;;;39.83;33.46;97280.75;4833128;29;20109;-69
2022/06/14 10:05:18;;;;;;;54.53;7.75;;;;;;;39.83;35.71;97277.25;4852962;29;20462;-68
2022/06/14 10:08:17;;;;;;;51.65;8.45;;;;;;;39.83;33.20;97274.53;4853091;29;20042;-68
2022/06/14 10:11:24;;;;;;;63.95;7.63;;;;;;;39.79;35.18;97276.91;4854306;29;20064;-67
2022/06/14 10:14:25;;;;;;;52.72;7.75;;;;;;;39.86;33.64;97274.00;4853244;29;20056;-67
2022/06/14 10:17:44;;;;;;;51.60;7.30;;;;;;;39.98;32.87;97264.56;4837420;29;20053;-66
2022/06/14 10:20:48;;;;;;;45.20;6.65;;;;;;;40.02;32.69;97264.84;4851854;29;20150;-67
2022/06/14 10:23:46;;;;;;;46.33;7.30;;;;;;;39.99;32.10;97260.78;4848430;29;20109;-68
2022/06/14 10:30:04;;;;;;;40.20;6.10;;;;;;;39.98;32.50;97252.97;4851462;29;20045;-67
2022/06/14 10:33:18;;;;;;;41.10;5.45;;;;;;;39.94;31.41;97249.19;4851516;29;20357;-67
2022/06/14 10:36:18;;;;;;;39.88;8.23;;;;;;;39.97;31.21;97243.25;4851044;29;20045;-67
2022/06/14 10:39:26;;;;;;;53.90;6.75;;;;;;;39.93;33.52;97247.56;4850882;29;20049;-67
2022/06/14 10:42:18;;;;;;;41.20;6.53;;;;;;;39.94;32.08;97241.88;4851590;29;20073;-67
2022/06/14 10:45:35;;;;;;;40.47;5.70;;;;;;;39.98;30.39;97248.38;4852634;29;20136;-67
2022/06/14 10:48:52;;;;;;;48.03;6.35;;;;;;;39.96;30.53;97245.13;4851483;29;20057;-66
2022/06/14 10:51:49;;;;;;;41.83;7.22;;;;;;;39.94;30.75;97246.47;4852272;29;20061;-67
2022/06/14 10:55:07;;;;;;;50.28;6.70;;;;;;;39.93;29.71;97234.88;4851136;29;20418;-67
2022/06/14 10:58:23;;;;;;;34.38;6.05;;;;;;;39.90;30.28;97234.63;4845521;29;20136;-65
2022/06/14 11:01:11;;;;;;;48.10;8.27;;;;;;;39.92;29.72;97229.75;4833232;29;20052;-67
2022/06/14 11:04:24;;;;;;;48.75;6.10;;;;;;;39.87;30.08;97235.13;4833560;29;20075;-67
2022/06/14 11:07:47;;;;;;;35.83;5.55;;;;;;;39.87;30.58;97224.34;4833816;29;20394;-67
2022/06/14 11:11:16;;;;;;;35.60;5.80;;;;;;;39.85;28.75;97226.50;4819445;29;20062;-68
2022/06/14 11:14:23;;;;;;;36.05;6.07;;;;;;;39.84;28.60;97222.19;4850751;29;20059;-68
2022/06/14 11:17:29;;;;;;;45.90;5.78;;;;;;;39.79;28.34;97217.56;4851877;29;20042;-68
2022/06/14 11:20:32;;;;;;;37.42;5.63;;;;;;;39.83;27.22;97215.19;4852271;29;20050;-67
2022/06/14 11:23:28;;;;;;;48.78;6.25;;;;;;;39.81;26.96;97222.69;4837099;29;20072;-67
2022/06/14 11:26:26;;;;;;;43.22;5.55;;;;;;;39.88;25.90;97213.28;4855035;29;20470;-67
2022/06/14 11:29:49;;;;;;;33.90;5.35;;;;;;;39.88;26.27;97212.47;4839089;29;20760;-68
2022/06/14 11:33:00;;;;;;;27.92;5.55;;;;;;;39.82;26.24;97208.97;4843527;29;20072;-68
2022/06/14 11:35:54;;;;;;;48.22;6.57;;;;;;;39.77;28.37;97204.34;4855147;29;20049;-67
2022/06/14 11:39:17;;;;;;;40.78;6.97;;;;;;;39.74;28.21;97194.13;4851218;29;20049;-67
2022/06/14 11:42:27;;;;;;;50.42;7.30;;;;;;;39.67;27.68;97198.94;4854633;29;20744;-67
2022/06/14 11:45:31;;;;;;;39.35;5.75;;;;;;;39.61;28.67;97193.81;4854232;29;20607;-67
2022/06/14 11:48:23;;;;;;;43.05;5.53;;;;;;;39.55;29.43;97189.50;4855185;29;20049;-67
2022/06/14 11:51:24;;;;;;;44.92;7.80;;;;;;;39.40;31.23;97195.69;4855147;29;20148;-67
2022/06/14 11:54:26;;;;;;;37.08;6.07;;;;;;;39.43;29.84;97188.94;4838853;29;20389;-67
2022/06/14 11:57:33;;;;;;;44.85;7.03;;;;;;;39.36;30.95;97187.28;4855481;29;20685;-68
2022/06/14 12:00:42;;;;;;;43.85;7.50;;;;;;;39.30;31.92;97184.84;4854388;29;20053;-68
2022/06/14 12:03:56;;;;;;;57.35;9.77;;;;;;;39.28;31.94;97173.50;4854165;29;20053;-67
2022/06/14 12:07:03;;;;;;;53.78;10.23;;;;;;;39.19;32.03;97173.25;4847506;29;20064;-67
2022/06/14 12:10:05;;;;;;;51.50;7.82;;;;;;;39.13;32.88;97170.78;4854588;29;20048;-67
2022/06/14 12:12:59;;;;;;;64.93;7.57;;;;;;;39.09;32.25;97164.31;4840301;29;20056;-67
2022/06/14 12:16:02;;;;;;;48.42;6.82;;;;;;;39.01;32.68;97163.75;4854916;29;20514;-67
2022/06/14 12:19:04;;;;;;;43.97;7.28;;;;;;;38.94;33.87;97160.50;4854586;29;20053;-67
2022/06/14 12:21:59;;;;;;;54.08;8.93;;;;;;;38.93;33.51;97158.84;4854831;29;20522;-67
2022/06/14 12:28:35;;;;;;;55.78;7.07;;;;;;;38.81;34.24;97160.94;4853613;29;20140;-67
2022/06/14 12:31:38;;;;;;;47.95;8.45;;;;;;;38.89;33.96;97146.97;4854704;29;20049;-67
2022/06/14 12:34:44;;;;;;;59.20;8.65;;;;;;;38.77;34.43;97149.09;4852172;29;20053;-67
2022/06/14 12:37:45;;;;;;;46.03;7.60;;;;;;;38.72;34.41;97148.25;4852672;29;20073;-67
2022/06/14 12:40:55;;;;;;;47.20;7.38;;;;;;;38.74;33.35;97157.69;4853533;29;20378;-68
2022/06/14 12:43:53;;;;;;;63.53;7.57;;;;;;;38.76;33.21;97150.16;4852953;29;20050;-68
2022/06/14 12:46:46;;;;;;;52.85;8.45;;;;;;;38.75;32.73;97147.72;4853461;29;20057;-69
2022/06/14 12:49:40;;;;;;;;;;;;;;;38.70;33.88;97145.03;4852931;29;20054;-68
2022/06/14 12:52:26;;;;;;;43.38;6.63;;;;;;;38.63;33.66;97147.97;4853179;29;20616;-69
2022/06/14 12:55:25;;;;;;;51.10;7.30;;;;;;;38.57;34.05;97147.09;4849699;29;20053;-68
2022/06/14 12:58:40;;;;;;;64.30;8.10;;;;;;;38.49;35.56;97139.50;4853587;29;20144;-67
2022/06/14 13:01:44;;;;;;;45.40;7.82;;;;;;;38.27;36.68;97144.22;4853103;29;20162;-68
2022/06/14 13:04:48;;;;;;;47.33;7.78;;;;;;;38.26;36.47;97129.97;4853284;29;20057;-69
2022/06/14 13:07:56;;;;;;;58.00;9.18;;;;;;;38.32;35.29;97143.44;4853504;29;20053;-68
2022/06/14 13:11:01;;;;;;;41.78;7.68;;;;;;;38.36;35.51;97139.97;4854244;29;20129;-67
2022/06/14 13:13:59;;;;;;;48.33;6.03;;;;;;;38.40;34.73;97140.25;4853109;29;20052;-68
2022/06/14 13:17:32;;;;;;;46.03;8.32;;;;;;;38.28;35.68;97143.16;4853561;29;20148;-67
2022/06/14 13:20:48;;;;;;;41.47;6.07;;;;;;;38.15;35.91;97149.84;4853113;29;20152;-67
2022/06/14 13:24:05;;;;;;;43.80;7.00;;;;;;;38.07;35.06;97153.00;4853522;29;20049;-68
2022/06/14 13:27:04;;;;;;;39.30;6.28;;;;;;;38.14;34.39;97153.59;4852162;29;20593;-67
2022/06/14 13:30:16;;;;;;;47.17;7.30;;;;;;;38.15;34.32;97149.84;4852939;29;20076;-68
2022/06/14 13:33:26;;;;;;;36.70;5.95;;;;;;;38.02;35.04;97152.91;4853597;29;20537;-68
2022/06/14 13:36:34;;;;;;;39.72;7.05;;;;;;;37.91;34.70;97144.00;4852696;29;20053;-68
2022/06/14 13:39:42;;;;;;;34.90;5.97;;;;;;;37.89;33.75;97148.81;4853043;29;20046;-68
2022/06/14 13:42:45;;;;;;;30.48;5.65;;;;;;;37.84;34.21;97147.94;4852337;29;20099;-67
2022/06/14 13:45:57;;;;;;;36.25;5.70;;;;;;;37.80;34.56;97146.84;4852559;29;20121;-69
2022/06/14 13:48:48;;;;;;;45.20;7.93;;;;;;;37.89;34.46;97142.63;4852882;29;20161;-68
2022/06/14 13:51:45;;;;;;;46.10;6.10;;;;;;;37.83;34.13;97139.09;4852830;29;20053;-68
2022/06/14 13:54:47;;;;;;;39.38;6.45;;;;;;;37.76;34.46;97145.72;4853149;29;20807;-67
2022/06/14 13:57:36;;;;;;;48.22;6.30;;;;;;;37.68;34.49;97138.13;4852555;29;20094;-68
2022/06/14 14:00:46;;;;;;;42.67;5.57;;;;;;;37.63;34.30;97144.28;4852902;29;20053;-67
2022/06/14 14:03:47;;;;;;;50.17;6.13;;;;;;;37.57;34.55;97147.97;4852647;29;20117;-68
2022/06/14 14:06:37;;;;;;;37.75;6.03;;;;;;;37.46;35.23;97147.06;4851855;29;20049;-67
2022/06/14 14:09:28;;;;;;;42.33;6.13;;;;;;;37.43;34.47;97139.53;4852715;29;20057;-67
2022/06/14 14:12:21;;;;;;;39.75;6.20;;;;;;;37.36;34.72;97133.53;4852696;29;20061;-66